sensor_id;sensor_type;location;lat;lon;timestamp;P1;durP1;ratioP1;P2;durP2;ratioP2
49103;SDS011;34915;52.926;11.116;2023-07-31T00:00:27;7.90;;;4.00;;
49103;SDS011;34915;52.926;11.116;2023-07-31T00:02:53;4.57;;;3.40;;
49103;SDS011;34915;52.926;11.116;2023-07-31T00:05:19;9.37;;;3.77;;
49103;SDS011;34915;52.926;11.116;2023-07-31T00:07:45;8.73;;;3.60;;
49103;SDS011;34915;52.926;11.116;2023-07-31T00:10:10;8.27;;;3.57;;
49103;SDS011;34915;52.926;11.116;2023-07-31T00:12:37;7.03;;;3.30;;
49103;SDS011;34915;52.926;11.116;2023-07-31T00:15:03;5.90;;;3.00;;
49103;SDS011;34915;52.926;11.116;2023-07-31T00:17:29;4.70;;;2.80;;
49103;SDS011;34915;52.926;11.116;2023-07-31T00:19:55;6.23;;;3.43;;
49103;SDS011;34915;52.926;11.116;2023-07-31T00:22:20;8.10;;;3.10;;
49103;SDS011;34915;52.926;11.116;2023-07-31T00:24:46;4.30;;;3.03;;
49103;SDS011;34915;52.926;11.116;2023-07-31T00:27:12;5.10;;;2.87;;
49103;SDS011;34915;52.926;11.116;2023-07-31T00:29:37;7.47;;;3.10;;
49103;SDS011;34915;52.926;11.116;2023-07-31T00:32:03;7.80;;;3.17;;
49103;SDS011;34915;52.926;11.116;2023-07-31T00:34:29;5.60;;;2.23;;
49103;SDS011;34915;52.926;11.116;2023-07-31T00:36:54;3.50;;;2.53;;
49103;SDS011;34915;52.926;11.116;2023-07-31T00:39:20;5.33;;;2.30;;
49103;SDS011;34915;52.926;11.116;2023-07-31T00:41:46;4.80;;;2.40;;
49103;SDS011;34915;52.926;11.116;2023-07-31T00:44:11;7.40;;;2.97;;
49103;SDS011;34915;52.926;11.116;2023-07-31T00:46:37;5.97;;;2.90;;
49103;SDS011;34915;52.926;11.116;2023-07-31T00:49:02;6.33;;;2.70;;
49103;SDS011;34915;52.926;11.116;2023-07-31T00:51:29;10.63;;;3.13;;
49103;SDS011;34915;52.926;11.116;2023-07-31T00:53:55;3.87;;;2.10;;
49103;SDS011;34915;52.926;11.116;2023-07-31T00:56:21;7.60;;;2.50;;
49103;SDS011;34915;52.926;11.116;2023-07-31T00:58:47;4.50;;;2.33;;
49103;SDS011;34915;52.926;11.116;2023-07-31T01:01:13;5.43;;;2.50;;
49103;SDS011;34915;52.926;11.116;2023-07-31T01:03:38;8.43;;;3.10;;
49103;SDS011;34915;52.926;11.116;2023-07-31T01:08:46;4.50;;;2.47;;
49103;SDS011;34915;52.926;11.116;2023-07-31T01:11:27;7.57;;;3.03;;
49103;SDS011;34915;52.926;11.116;2023-07-31T01:13:55;5.13;;;2.77;;
49103;SDS011;34915;52.926;11.116;2023-07-31T01:16:22;5.47;;;2.67;;
49103;SDS011;34915;52.926;11.116;2023-07-31T01:18:47;7.30;;;2.53;;
49103;SDS011;34915;52.926;11.116;2023-07-31T01:21:26;7.17;;;2.43;;
49103;SDS011;34915;52.926;11.116;2023-07-31T01:27:15;6.23;;;2.67;;
49103;SDS011;34915;52.926;11.116;2023-07-31T01:29:56;6.47;;;2.30;;
49103;SDS011;34915;52.926;11.116;2023-07-31T01:32:26;4.60;;;2.23;;
49103;SDS011;34915;52.926;11.116;2023-07-31T01:34:54;5.53;;;2.57;;
49103;SDS011;34915;52.926;11.116;2023-07-31T01:37:21;6.83;;;3.40;;
49103;SDS011;34915;52.926;11.116;2023-07-31T01:39:46;7.17;;;2.80;;
49103;SDS011;34915;52.926;11.116;2023-07-31T01:42:12;6.77;;;3.27;;
49103;SDS011;34915;52.926;11.116;2023-07-31T01:44:39;6.50;;;3.30;;
49103;SDS011;34915;52.926;11.116;2023-07-31T01:47:05;6.57;;;3.30;;
49103;SDS011;34915;52.926;11.116;2023-07-31T01:49:31;7.07;;;3.20;;
49103;SDS011;34915;52.926;11.116;2023-07-31T01:51:56;9.07;;;3.57;;
49103;SDS011;34915;52.926;11.116;2023-07-31T01:54:22;7.00;;;3.60;;
49103;SDS011;34915;52.926;11.116;2023-07-31T01:56:47;6.97;;;3.70;;
49103;SDS011;34915;52.926;11.116;2023-07-31T01:59:13;4.57;;;3.90;;
49103;SDS011;34915;52.926;11.116;2023-07-31T02:01:38;7.57;;;3.80;;
49103;SDS011;34915;52.926;11.116;2023-07-31T02:04:04;5.90;;;3.83;;
49103;SDS011;34915;52.926;11.116;2023-07-31T02:06:30;5.70;;;4.30;;
49103;SDS011;34915;52.926;11.116;2023-07-31T02:08:55;7.87;;;4.43;;
49103;SDS011;34915;52.926;11.116;2023-07-31T02:11:21;6.43;;;4.20;;
49103;SDS011;34915;52.926;11.116;2023-07-31T02:13:46;4.60;;;4.10;;
49103;SDS011;34915;52.926;11.116;2023-07-31T02:16:12;6.37;;;4.57;;
49103;SDS011;34915;52.926;11.116;2023-07-31T02:18:37;7.77;;;4.70;;
49103;SDS011;34915;52.926;11.116;2023-07-31T02:21:03;6.07;;;4.17;;
49103;SDS011;34915;52.926;11.116;2023-07-31T02:23:28;5.37;;;4.37;;
49103;SDS011;34915;52.926;11.116;2023-07-31T02:25:54;8.23;;;4.83;;
49103;SDS011;34915;52.926;11.116;2023-07-31T02:28:23;6.53;;;4.47;;
49103;SDS011;34915;52.926;11.116;2023-07-31T02:30:49;4.93;;;4.13;;
49103;SDS011;34915;52.926;11.116;2023-07-31T02:33:16;5.70;;;3.83;;
49103;SDS011;34915;52.926;11.116;2023-07-31T02:35:42;6.37;;;4.27;;
49103;SDS011;34915;52.926;11.116;2023-07-31T02:38:07;7.27;;;4.07;;
49103;SDS011;34915;52.926;11.116;2023-07-31T02:40:33;4.50;;;3.90;;
49103;SDS011;34915;52.926;11.116;2023-07-31T02:42:58;7.03;;;3.80;;
49103;SDS011;34915;52.926;11.116;2023-07-31T02:45:24;8.13;;;3.80;;
49103;SDS011;34915;52.926;11.116;2023-07-31T02:47:49;8.30;;;4.00;;
49103;SDS011;34915;52.926;11.116;2023-07-31T02:50:15;6.03;;;3.97;;
49103;SDS011;34915;52.926;11.116;2023-07-31T02:52:40;5.77;;;3.93;;
49103;SDS011;34915;52.926;11.116;2023-07-31T02:55:06;7.10;;;4.00;;
49103;SDS011;34915;52.926;11.116;2023-07-31T02:57:32;7.40;;;3.83;;
49103;SDS011;34915;52.926;11.116;2023-07-31T02:59:57;6.03;;;3.87;;
49103;SDS011;34915;52.926;11.116;2023-07-31T03:02:23;10.27;;;4.20;;
49103;SDS011;34915;52.926;11.116;2023-07-31T03:04:48;8.73;;;3.60;;
49103;SDS011;34915;52.926;11.116;2023-07-31T03:07:14;8.40;;;3.70;;
49103;SDS011;34915;52.926;11.116;2023-07-31T03:09:39;6.13;;;3.77;;
49103;SDS011;34915;52.926;11.116;2023-07-31T03:12:05;7.60;;;4.03;;
49103;SDS011;34915;52.926;11.116;2023-07-31T03:14:31;6.27;;;3.30;;
49103;SDS011;34915;52.926;11.116;2023-07-31T03:16:57;8.20;;;3.97;;
49103;SDS011;34915;52.926;11.116;2023-07-31T03:19:22;5.23;;;3.37;;
49103;SDS011;34915;52.926;11.116;2023-07-31T03:21:48;7.40;;;3.90;;
49103;SDS011;34915;52.926;11.116;2023-07-31T03:24:13;6.43;;;3.60;;
49103;SDS011;34915;52.926;11.116;2023-07-31T03:26:39;7.07;;;3.43;;
49103;SDS011;34915;52.926;11.116;2023-07-31T03:29:06;10.80;;;4.03;;
49103;SDS011;34915;52.926;11.116;2023-07-31T03:31:32;6.47;;;3.70;;
49103;SDS011;34915;52.926;11.116;2023-07-31T03:33:58;6.43;;;4.13;;
49103;SDS011;34915;52.926;11.116;2023-07-31T03:36:23;5.33;;;3.40;;
49103;SDS011;34915;52.926;11.116;2023-07-31T03:38:50;9.70;;;3.90;;
49103;SDS011;34915;52.926;11.116;2023-07-31T03:41:19;7.07;;;3.90;;
49103;SDS011;34915;52.926;11.116;2023-07-31T03:43:46;3.87;;;3.50;;
49103;SDS011;34915;52.926;11.116;2023-07-31T03:46:16;4.30;;;3.67;;
49103;SDS011;34915;52.926;11.116;2023-07-31T03:48:41;5.47;;;3.60;;
49103;SDS011;34915;52.926;11.116;2023-07-31T03:51:07;5.90;;;4.03;;
49103;SDS011;34915;52.926;11.116;2023-07-31T03:53:33;4.93;;;3.60;;
49103;SDS011;34915;52.926;11.116;2023-07-31T03:55:58;7.80;;;3.93;;
49103;SDS011;34915;52.926;11.116;2023-07-31T03:58:25;5.47;;;3.37;;
49103;SDS011;34915;52.926;11.116;2023-07-31T04:00:50;7.13;;;4.00;;
49103;SDS011;34915;52.926;11.116;2023-07-31T04:03:16;5.37;;;3.63;;
49103;SDS011;34915;52.926;11.116;2023-07-31T04:05:41;7.50;;;4.00;;
49103;SDS011;34915;52.926;11.116;2023-07-31T04:08:07;7.03;;;3.70;;
49103;SDS011;34915;52.926;11.116;2023-07-31T04:10:33;6.90;;;3.73;;
49103;SDS011;34915;52.926;11.116;2023-07-31T04:12:59;6.00;;;3.80;;
49103;SDS011;34915;52.926;11.116;2023-07-31T04:15:25;7.80;;;4.13;;
49103;SDS011;34915;52.926;11.116;2023-07-31T04:17:51;5.60;;;3.80;;
49103;SDS011;34915;52.926;11.116;2023-07-31T04:20:17;6.83;;;3.87;;
49103;SDS011;34915;52.926;11.116;2023-07-31T04:22:42;8.87;;;4.13;;
49103;SDS011;34915;52.926;11.116;2023-07-31T04:25:08;6.00;;;3.77;;
49103;SDS011;34915;52.926;11.116;2023-07-31T04:27:33;4.80;;;3.53;;
49103;SDS011;34915;52.926;11.116;2023-07-31T04:29:59;8.43;;;3.60;;
49103;SDS011;34915;52.926;11.116;2023-07-31T04:32:25;9.87;;;3.37;;
49103;SDS011;34915;52.926;11.116;2023-07-31T04:34:50;12.37;;;3.77;;
49103;SDS011;34915;52.926;11.116;2023-07-31T04:37:16;6.57;;;3.50;;
49103;SDS011;34915;52.926;11.116;2023-07-31T04:39:41;7.27;;;3.53;;
49103;SDS011;34915;52.926;11.116;2023-07-31T04:42:07;4.97;;;3.27;;
49103;SDS011;34915;52.926;11.116;2023-07-31T04:44:32;6.03;;;3.27;;
49103;SDS011;34915;52.926;11.116;2023-07-31T04:46:58;5.47;;;3.20;;
49103;SDS011;34915;52.926;11.116;2023-07-31T04:49:23;7.80;;;3.70;;
49103;SDS011;34915;52.926;11.116;2023-07-31T04:51:49;6.33;;;2.80;;
49103;SDS011;34915;52.926;11.116;2023-07-31T04:54:15;8.30;;;3.60;;
49103;SDS011;34915;52.926;11.116;2023-07-31T04:56:40;7.60;;;3.00;;
49103;SDS011;34915;52.926;11.116;2023-07-31T04:59:08;5.30;;;3.37;;
49103;SDS011;34915;52.926;11.116;2023-07-31T05:01:34;7.33;;;3.60;;
49103;SDS011;34915;52.926;11.116;2023-07-31T05:04:00;3.43;;;2.53;;
49103;SDS011;34915;52.926;11.116;2023-07-31T05:06:25;5.37;;;2.63;;
49103;SDS011;34915;52.926;11.116;2023-07-31T05:08:51;4.43;;;2.40;;
49103;SDS011;34915;52.926;11.116;2023-07-31T05:11:16;8.03;;;2.93;;
49103;SDS011;34915;52.926;11.116;2023-07-31T05:13:42;5.83;;;2.77;;
49103;SDS011;34915;52.926;11.116;2023-07-31T05:16:07;4.90;;;2.90;;
49103;SDS011;34915;52.926;11.116;2023-07-31T05:18:33;5.40;;;2.50;;
49103;SDS011;34915;52.926;11.116;2023-07-31T05:21:01;3.07;;;2.37;;
49103;SDS011;34915;52.926;11.116;2023-07-31T05:23:27;4.73;;;2.47;;
49103;SDS011;34915;52.926;11.116;2023-07-31T05:25:53;4.67;;;2.67;;
49103;SDS011;34915;52.926;11.116;2023-07-31T05:28:20;2.60;;;2.37;;
49103;SDS011;34915;52.926;11.116;2023-07-31T05:30:46;3.90;;;2.30;;
49103;SDS011;34915;52.926;11.116;2023-07-31T05:33:12;4.10;;;2.47;;
49103;SDS011;34915;52.926;11.116;2023-07-31T05:35:37;6.77;;;2.67;;
49103;SDS011;34915;52.926;11.116;2023-07-31T05:38:03;2.97;;;2.00;;
49103;SDS011;34915;52.926;11.116;2023-07-31T05:40:32;2.63;;;2.30;;
49103;SDS011;34915;52.926;11.116;2023-07-31T05:42:58;3.93;;;2.50;;
49103;SDS011;34915;52.926;11.116;2023-07-31T05:45:24;4.63;;;2.23;;
49103;SDS011;34915;52.926;11.116;2023-07-31T05:47:50;2.77;;;2.10;;
49103;SDS011;34915;52.926;11.116;2023-07-31T05:50:16;2.67;;;1.90;;
49103;SDS011;34915;52.926;11.116;2023-07-31T05:52:41;3.90;;;2.90;;
49103;SDS011;34915;52.926;11.116;2023-07-31T05:55:07;3.67;;;2.70;;
49103;SDS011;34915;52.926;11.116;2023-07-31T05:57:33;2.93;;;2.27;;
49103;SDS011;34915;52.926;11.116;2023-07-31T05:59:59;3.50;;;2.17;;
49103;SDS011;34915;52.926;11.116;2023-07-31T06:02:24;3.83;;;2.20;;
49103;SDS011;34915;52.926;11.116;2023-07-31T06:04:50;3.50;;;2.30;;
49103;SDS011;34915;52.926;11.116;2023-07-31T06:07:15;2.87;;;2.30;;
49103;SDS011;34915;52.926;11.116;2023-07-31T06:09:44;4.93;;;2.00;;
49103;SDS011;34915;52.926;11.116;2023-07-31T06:12:09;3.40;;;2.50;;
49103;SDS011;34915;52.926;11.116;2023-07-31T06:14:35;4.60;;;2.43;;
49103;SDS011;34915;52.926;11.116;2023-07-31T06:17:00;4.80;;;2.60;;
49103;SDS011;34915;52.926;11.116;2023-07-31T06:19:26;3.57;;;2.47;;
49103;SDS011;34915;52.926;11.116;2023-07-31T06:21:51;2.50;;;2.30;;
49103;SDS011;34915;52.926;11.116;2023-07-31T06:24:17;2.90;;;2.40;;
49103;SDS011;34915;52.926;11.116;2023-07-31T06:26:45;2.80;;;2.50;;
49103;SDS011;34915;52.926;11.116;2023-07-31T06:29:11;3.13;;;2.13;;
49103;SDS011;34915;52.926;11.116;2023-07-31T06:31:36;2.57;;;2.33;;
49103;SDS011;34915;52.926;11.116;2023-07-31T06:34:02;2.83;;;2.50;;
49103;SDS011;34915;52.926;11.116;2023-07-31T06:36:27;2.20;;;2.00;;
49103;SDS011;34915;52.926;11.116;2023-07-31T06:38:53;2.10;;;2.00;;
49103;SDS011;34915;52.926;11.116;2023-07-31T06:41:18;2.50;;;2.30;;
49103;SDS011;34915;52.926;11.116;2023-07-31T06:43:44;2.80;;;2.20;;
49103;SDS011;34915;52.926;11.116;2023-07-31T06:46:09;2.10;;;2.00;;
49103;SDS011;34915;52.926;11.116;2023-07-31T06:48:36;1.80;;;1.70;;
49103;SDS011;34915;52.926;11.116;2023-07-31T06:51:02;3.40;;;2.00;;
49103;SDS011;34915;52.926;11.116;2023-07-31T06:53:28;3.53;;;2.20;;
49103;SDS011;34915;52.926;11.116;2023-07-31T06:55:54;2.20;;;2.00;;
49103;SDS011;34915;52.926;11.116;2023-07-31T06:58:20;2.47;;;2.20;;
49103;SDS011;34915;52.926;11.116;2023-07-31T07:00:45;4.03;;;1.90;;
49103;SDS011;34915;52.926;11.116;2023-07-31T07:03:11;2.33;;;2.00;;
49103;SDS011;34915;52.926;11.116;2023-07-31T07:05:36;2.20;;;1.93;;
49103;SDS011;34915;52.926;11.116;2023-07-31T07:08:02;3.23;;;2.27;;
49103;SDS011;34915;52.926;11.116;2023-07-31T07:10:27;2.07;;;1.80;;
49103;SDS011;34915;52.926;11.116;2023-07-31T07:12:53;1.97;;;1.87;;
49103;SDS011;34915;52.926;11.116;2023-07-31T07:15:20;4.33;;;1.40;;
49103;SDS011;34915;52.926;11.116;2023-07-31T07:17:46;1.80;;;1.70;;
49103;SDS011;34915;52.926;11.116;2023-07-31T07:20:12;3.60;;;2.00;;
49103;SDS011;34915;52.926;11.116;2023-07-31T07:22:37;1.83;;;1.73;;
49103;SDS011;34915;52.926;11.116;2023-07-31T07:25:03;2.97;;;2.17;;
49103;SDS011;34915;52.926;11.116;2023-07-31T07:27:30;2.63;;;2.10;;
49103;SDS011;34915;52.926;11.116;2023-07-31T07:29:55;2.00;;;1.90;;
49103;SDS011;34915;52.926;11.116;2023-07-31T07:32:21;2.70;;;2.10;;
49103;SDS011;34915;52.926;11.116;2023-07-31T07:34:47;3.37;;;1.90;;
49103;SDS011;34915;52.926;11.116;2023-07-31T07:37:13;2.03;;;1.80;;
49103;SDS011;34915;52.926;11.116;2023-07-31T07:39:41;3.13;;;2.17;;
49103;SDS011;34915;52.926;11.116;2023-07-31T07:42:06;2.70;;;2.00;;
49103;SDS011;34915;52.926;11.116;2023-07-31T07:44:32;3.13;;;1.83;;
49103;SDS011;34915;52.926;11.116;2023-07-31T07:46:57;1.97;;;1.87;;
49103;SDS011;34915;52.926;11.116;2023-07-31T07:49:23;3.90;;;2.10;;
49103;SDS011;34915;52.926;11.116;2023-07-31T07:51:48;4.67;;;1.93;;
49103;SDS011;34915;52.926;11.116;2023-07-31T07:54:14;2.10;;;1.70;;
49103;SDS011;34915;52.926;11.116;2023-07-31T07:56:42;3.23;;;2.17;;
49103;SDS011;34915;52.926;11.116;2023-07-31T07:59:08;1.73;;;1.43;;
49103;SDS011;34915;52.926;11.116;2023-07-31T08:01:33;3.23;;;1.53;;
49103;SDS011;34915;52.926;11.116;2023-07-31T08:03:59;1.70;;;1.60;;
49103;SDS011;34915;52.926;11.116;2023-07-31T08:06:25;2.17;;;1.50;;
49103;SDS011;34915;52.926;11.116;2023-07-31T08:08:51;3.33;;;1.53;;
49103;SDS011;34915;52.926;11.116;2023-07-31T08:11:16;2.07;;;1.80;;
49103;SDS011;34915;52.926;11.116;2023-07-31T08:13:42;2.07;;;1.87;;
49103;SDS011;34915;52.926;11.116;2023-07-31T08:16:07;2.70;;;2.00;;
49103;SDS011;34915;52.926;11.116;2023-07-31T08:18:33;2.10;;;1.77;;
49103;SDS011;34915;52.926;11.116;2023-07-31T08:20:59;2.00;;;1.90;;
49103;SDS011;34915;52.926;11.116;2023-07-31T08:23:26;1.90;;;1.80;;
49103;SDS011;34915;52.926;11.116;2023-07-31T08:25:51;2.13;;;1.93;;
49103;SDS011;34915;52.926;11.116;2023-07-31T08:28:17;3.97;;;1.60;;
49103;SDS011;34915;52.926;11.116;2023-07-31T08:30:43;1.63;;;1.40;;
49103;SDS011;34915;52.926;11.116;2023-07-31T08:33:08;1.90;;;1.77;;
49103;SDS011;34915;52.926;11.116;2023-07-31T08:35:34;2.37;;;1.20;;
49103;SDS011;34915;52.926;11.116;2023-07-31T08:37:59;2.70;;;1.80;;
49103;SDS011;34915;52.926;11.116;2023-07-31T08:40:25;1.70;;;1.53;;
49103;SDS011;34915;52.926;11.116;2023-07-31T08:42:53;2.43;;;1.57;;
49103;SDS011;34915;52.926;11.116;2023-07-31T08:45:21;2.93;;;1.70;;
49103;SDS011;34915;52.926;11.116;2023-07-31T08:47:48;1.80;;;1.70;;
49103;SDS011;34915;52.926;11.116;2023-07-31T08:50:19;1.83;;;1.73;;
49103;SDS011;34915;52.926;11.116;2023-07-31T08:52:45;3.83;;;2.37;;
49103;SDS011;34915;52.926;11.116;2023-07-31T08:55:12;2.63;;;2.00;;
49103;SDS011;34915;52.926;11.116;2023-07-31T08:57:38;3.83;;;2.53;;
49103;SDS011;34915;52.926;11.116;2023-07-31T09:00:05;2.80;;;2.60;;
49103;SDS011;34915;52.926;11.116;2023-07-31T09:05:12;3.63;;;2.67;;
49103;SDS011;34915;52.926;11.116;2023-07-31T09:07:38;5.17;;;3.47;;
49103;SDS011;34915;52.926;11.116;2023-07-31T09:10:05;4.23;;;3.73;;
49103;SDS011;34915;52.926;11.116;2023-07-31T09:12:31;4.03;;;3.63;;
49103;SDS011;34915;52.926;11.116;2023-07-31T09:14:57;7.60;;;5.03;;
49103;SDS011;34915;52.926;11.116;2023-07-31T09:17:29;6.37;;;5.50;;
49103;SDS011;34915;52.926;11.116;2023-07-31T09:19:56;10.67;;;6.10;;
49103;SDS011;34915;52.926;11.116;2023-07-31T09:22:31;6.87;;;6.00;;
49103;SDS011;34915;52.926;11.116;2023-07-31T09:25:20;8.13;;;6.87;;
49103;SDS011;34915;52.926;11.116;2023-07-31T09:28:00;17.47;;;8.07;;
49103;SDS011;34915;52.926;11.116;2023-07-31T09:30:27;11.60;;;8.10;;
49103;SDS011;34915;52.926;11.116;2023-07-31T09:33:00;11.57;;;8.57;;
49103;SDS011;34915;52.926;11.116;2023-07-31T09:35:28;16.77;;;9.27;;
49103;SDS011;34915;52.926;11.116;2023-07-31T09:37:57;14.00;;;9.83;;
49103;SDS011;34915;52.926;11.116;2023-07-31T09:40:25;20.00;;;10.53;;
49103;SDS011;34915;52.926;11.116;2023-07-31T09:42:58;22.47;;;12.67;;
49103;SDS011;34915;52.926;11.116;2023-07-31T09:45:25;13.83;;;10.80;;
49103;SDS011;34915;52.926;11.116;2023-07-31T09:47:52;18.57;;;12.70;;
49103;SDS011;34915;52.926;11.116;2023-07-31T09:50:19;19.13;;;11.97;;
49103;SDS011;34915;52.926;11.116;2023-07-31T09:52:46;17.00;;;10.60;;
49103;SDS011;34915;52.926;11.116;2023-07-31T09:55:12;15.77;;;11.10;;
49103;SDS011;34915;52.926;11.116;2023-07-31T09:57:40;16.97;;;11.57;;
49103;SDS011;34915;52.926;11.116;2023-07-31T10:00:08;24.07;;;13.07;;
49103;SDS011;34915;52.926;11.116;2023-07-31T10:02:34;18.70;;;12.00;;
49103;SDS011;34915;52.926;11.116;2023-07-31T10:05:02;17.40;;;11.50;;
49103;SDS011;34915;52.926;11.116;2023-07-31T10:07:30;18.50;;;11.53;;
49103;SDS011;34915;52.926;11.116;2023-07-31T10:09:59;17.03;;;10.87;;
49103;SDS011;34915;52.926;11.116;2023-07-31T10:12:26;20.23;;;11.70;;
49103;SDS011;34915;52.926;11.116;2023-07-31T10:14:55;14.93;;;10.73;;
49103;SDS011;34915;52.926;11.116;2023-07-31T10:17:25;16.83;;;9.83;;
49103;SDS011;34915;52.926;11.116;2023-07-31T10:19:51;23.03;;;10.93;;
49103;SDS011;34915;52.926;11.116;2023-07-31T10:22:20;14.07;;;10.17;;
49103;SDS011;34915;52.926;11.116;2023-07-31T10:24:46;15.77;;;10.50;;
49103;SDS011;34915;52.926;11.116;2023-07-31T10:27:12;12.07;;;9.17;;
49103;SDS011;34915;52.926;11.116;2023-07-31T10:29:38;15.33;;;9.67;;
49103;SDS011;34915;52.926;11.116;2023-07-31T10:32:05;14.07;;;8.07;;
49103;SDS011;34915;52.926;11.116;2023-07-31T10:34:35;17.37;;;9.43;;
49103;SDS011;34915;52.926;11.116;2023-07-31T10:42:32;10.73;;;7.17;;
49103;SDS011;34915;52.926;11.116;2023-07-31T10:45:04;9.93;;;6.87;;
49103;SDS011;34915;52.926;11.116;2023-07-31T10:47:38;12.40;;;6.67;;
49103;SDS011;34915;52.926;11.116;2023-07-31T10:50:11;10.43;;;5.73;;
49103;SDS011;34915;52.926;11.116;2023-07-31T10:52:36;11.03;;;6.57;;
49103;SDS011;34915;52.926;11.116;2023-07-31T10:55:48;8.37;;;5.57;;
49103;SDS011;34915;52.926;11.116;2023-07-31T10:57:51;7.47;;;5.30;;
49103;SDS011;34915;52.926;11.116;2023-07-31T11:00:18;7.60;;;5.67;;
49103;SDS011;34915;52.926;11.116;2023-07-31T11:02:57;9.47;;;5.30;;
49103;SDS011;34915;52.926;11.116;2023-07-31T11:08:24;7.00;;;5.00;;
49103;SDS011;34915;52.926;11.116;2023-07-31T11:11:13;6.83;;;4.90;;
49103;SDS011;34915;52.926;11.116;2023-07-31T11:16:13;10.13;;;5.73;;
49103;SDS011;34915;52.926;11.116;2023-07-31T11:18:39;8.67;;;5.50;;
49103;SDS011;34915;52.926;11.116;2023-07-31T11:21:14;7.00;;;5.00;;
49103;SDS011;34915;52.926;11.116;2023-07-31T11:23:41;7.30;;;5.73;;
49103;SDS011;34915;52.926;11.116;2023-07-31T11:26:10;7.73;;;5.83;;
49103;SDS011;34915;52.926;11.116;2023-07-31T11:28:36;9.57;;;6.30;;
49103;SDS011;34915;52.926;11.116;2023-07-31T11:31:04;10.27;;;6.50;;
49103;SDS011;34915;52.926;11.116;2023-07-31T11:33:34;6.87;;;5.17;;
49103;SDS011;34915;52.926;11.116;2023-07-31T11:35:59;7.03;;;5.60;;
49103;SDS011;34915;52.926;11.116;2023-07-31T11:38:25;9.07;;;5.60;;
49103;SDS011;34915;52.926;11.116;2023-07-31T11:40:56;6.43;;;5.13;;
49103;SDS011;34915;52.926;11.116;2023-07-31T11:43:24;5.67;;;4.80;;
49103;SDS011;34915;52.926;11.116;2023-07-31T11:45:52;6.50;;;5.00;;
49103;SDS011;34915;52.926;11.116;2023-07-31T11:48:22;7.60;;;5.33;;
49103;SDS011;34915;52.926;11.116;2023-07-31T11:51:02;5.40;;;4.13;;
49103;SDS011;34915;52.926;11.116;2023-07-31T11:53:35;4.73;;;3.97;;
49103;SDS011;34915;52.926;11.116;2023-07-31T11:56:03;6.63;;;3.60;;
49103;SDS011;34915;52.926;11.116;2023-07-31T11:58:34;4.87;;;3.70;;
49103;SDS011;34915;52.926;11.116;2023-07-31T12:01:00;4.10;;;3.67;;
49103;SDS011;34915;52.926;11.116;2023-07-31T12:03:27;7.00;;;4.23;;
49103;SDS011;34915;52.926;11.116;2023-07-31T12:05:53;5.67;;;3.60;;
49103;SDS011;34915;52.926;11.116;2023-07-31T12:08:25;4.73;;;3.13;;
49103;SDS011;34915;52.926;11.116;2023-07-31T12:10:51;3.70;;;3.40;;
49103;SDS011;34915;52.926;11.116;2023-07-31T12:13:21;4.30;;;3.50;;
49103;SDS011;34915;52.926;11.116;2023-07-31T12:15:54;4.60;;;3.27;;
49103;SDS011;34915;52.926;11.116;2023-07-31T12:18:26;3.57;;;3.10;;
49103;SDS011;34915;52.926;11.116;2023-07-31T12:21:00;5.37;;;4.10;;
49103;SDS011;34915;52.926;11.116;2023-07-31T12:23:27;5.17;;;3.43;;
49103;SDS011;34915;52.926;11.116;2023-07-31T12:28:37;3.93;;;3.37;;
49103;SDS011;34915;52.926;11.116;2023-07-31T12:33:44;5.40;;;3.20;;
49103;SDS011;34915;52.926;11.116;2023-07-31T12:36:16;3.87;;;2.80;;
49103;SDS011;34915;52.926;11.116;2023-07-31T12:38:43;3.50;;;2.40;;
49103;SDS011;34915;52.926;11.116;2023-07-31T12:41:09;3.03;;;2.70;;
49103;SDS011;34915;52.926;11.116;2023-07-31T12:43:36;5.63;;;3.20;;
49103;SDS011;34915;52.926;11.116;2023-07-31T12:46:04;3.27;;;2.97;;
49103;SDS011;34915;52.926;11.116;2023-07-31T12:48:30;3.10;;;2.80;;
49103;SDS011;34915;52.926;11.116;2023-07-31T12:50:56;5.50;;;3.03;;
49103;SDS011;34915;52.926;11.116;2023-07-31T12:53:22;6.73;;;2.47;;
49103;SDS011;34915;52.926;11.116;2023-07-31T12:55:47;5.53;;;2.10;;
49103;SDS011;34915;52.926;11.116;2023-07-31T12:58:13;5.30;;;2.73;;
49103;SDS011;34915;52.926;11.116;2023-07-31T13:00:39;5.17;;;2.67;;
49103;SDS011;34915;52.926;11.116;2023-07-31T13:03:04;2.93;;;2.20;;
49103;SDS011;34915;52.926;11.116;2023-07-31T13:05:30;2.73;;;2.20;;
49103;SDS011;34915;52.926;11.116;2023-07-31T13:07:55;2.60;;;2.40;;
49103;SDS011;34915;52.926;11.116;2023-07-31T13:10:22;2.30;;;2.10;;
49103;SDS011;34915;52.926;11.116;2023-07-31T13:12:48;2.50;;;1.70;;
49103;SDS011;34915;52.926;11.116;2023-07-31T13:15:14;2.47;;;1.87;;
49103;SDS011;34915;52.926;11.116;2023-07-31T13:17:40;2.30;;;1.87;;
49103;SDS011;34915;52.926;11.116;2023-07-31T13:20:06;3.43;;;1.67;;
49103;SDS011;34915;52.926;11.116;2023-07-31T13:22:32;2.17;;;1.97;;
49103;SDS011;34915;52.926;11.116;2023-07-31T13:24:58;1.73;;;1.63;;
49103;SDS011;34915;52.926;11.116;2023-07-31T13:27:23;2.30;;;1.70;;
49103;SDS011;34915;52.926;11.116;2023-07-31T13:29:49;2.90;;;1.70;;
49103;SDS011;34915;52.926;11.116;2023-07-31T13:32:16;3.07;;;1.73;;
49103;SDS011;34915;52.926;11.116;2023-07-31T13:34:42;2.10;;;1.73;;
49103;SDS011;34915;52.926;11.116;2023-07-31T13:37:08;3.43;;;1.97;;
49103;SDS011;34915;52.926;11.116;2023-07-31T13:39:34;1.83;;;1.50;;
49103;SDS011;34915;52.926;11.116;2023-07-31T13:42:00;2.57;;;2.17;;
49103;SDS011;34915;52.926;11.116;2023-07-31T13:44:26;1.77;;;1.67;;
49103;SDS011;34915;52.926;11.116;2023-07-31T13:46:51;2.60;;;2.00;;
49103;SDS011;34915;52.926;11.116;2023-07-31T13:49:17;2.40;;;2.20;;
49103;SDS011;34915;52.926;11.116;2023-07-31T13:51:42;3.20;;;2.00;;
49103;SDS011;34915;52.926;11.116;2023-07-31T13:54:09;2.13;;;1.80;;
49103;SDS011;34915;52.926;11.116;2023-07-31T13:56:36;2.23;;;2.00;;
49103;SDS011;34915;52.926;11.116;2023-07-31T13:59:03;2.33;;;2.03;;
49103;SDS011;34915;52.926;11.116;2023-07-31T14:01:28;2.57;;;2.10;;
49103;SDS011;34915;52.926;11.116;2023-07-31T14:03:55;2.47;;;2.27;;
49103;SDS011;34915;52.926;11.116;2023-07-31T14:06:20;4.50;;;1.97;;
49103;SDS011;34915;52.926;11.116;2023-07-31T14:08:46;2.83;;;2.00;;
49103;SDS011;34915;52.926;11.116;2023-07-31T14:11:14;2.33;;;2.00;;
49103;SDS011;34915;52.926;11.116;2023-07-31T14:13:40;3.30;;;2.37;;
49103;SDS011;34915;52.926;11.116;2023-07-31T14:16:05;2.90;;;2.60;;
49103;SDS011;34915;52.926;11.116;2023-07-31T14:18:31;3.77;;;2.13;;
49103;SDS011;34915;52.926;11.116;2023-07-31T14:20:57;4.60;;;2.30;;
49103;SDS011;34915;52.926;11.116;2023-07-31T14:23:22;2.63;;;2.43;;
49103;SDS011;34915;52.926;11.116;2023-07-31T14:25:48;3.97;;;2.27;;
49103;SDS011;34915;52.926;11.116;2023-07-31T14:28:14;3.03;;;2.70;;
49103;SDS011;34915;52.926;11.116;2023-07-31T14:30:39;2.73;;;2.53;;
49103;SDS011;34915;52.926;11.116;2023-07-31T14:33:07;2.73;;;2.47;;
49103;SDS011;34915;52.926;11.116;2023-07-31T14:35:33;2.67;;;2.40;;
49103;SDS011;34915;52.926;11.116;2023-07-31T14:37:59;2.90;;;2.60;;
49103;SDS011;34915;52.926;11.116;2023-07-31T14:40:25;2.53;;;2.33;;
49103;SDS011;34915;52.926;11.116;2023-07-31T14:42:51;3.00;;;2.40;;
49103;SDS011;34915;52.926;11.116;2023-07-31T14:45:17;2.87;;;2.37;;
49103;SDS011;34915;52.926;11.116;2023-07-31T14:47:42;2.57;;;2.37;;
49103;SDS011;34915;52.926;11.116;2023-07-31T14:50:08;5.30;;;2.70;;
49103;SDS011;34915;52.926;11.116;2023-07-31T14:52:34;3.20;;;2.50;;
49103;SDS011;34915;52.926;11.116;2023-07-31T14:55:00;2.40;;;2.20;;